Latest Coastal Weather Observations for Lady Elliot Island

IDQ60701

Issued at 2:12 pm EST Thursday 30 July 2015 (issued every 10 minutes, with the page automatically refreshed every 10 minutes)

About coastal observations | Map of coastal stations | Coastal observations for QLD | Marine services | Other Formats
Station Details ID: 039059 Name: LADY ELLIOT ISLAND Lat: -24.11 Lon: 152.72 Height: 3.6 m
Data from the previous 72 hours. | See also: Recent months at Lady Elliot Island
Date/Time
EST
Temp

°C
Wind Pressure Rain
since 9am
mm
Weather Cloud Vis
km
Sea
Height
m
Swell
Dir
 
Speed
knots
Gust
knots
hPa Trend Height
m
Period
s
Dir
30/02:00pm 21.1 SSE 12 18 1023.2 - 0.2 - - - - - - -
30/01:30pm 20.8 SSE 13 18 1023.4 - 0.2 - - - - - - -
30/01:00pm 20.7 SSE 13 19 1023.8 - 0.2 - - - - - - -
30/12:30pm 21.0 S 12 19 1024.0 - 0.2 - - - - - - -
30/12:00pm 20.8 S 11 18 1024.5 - 0.2 - - - - - - -
30/11:30am 20.7 SSE 13 18 1024.8 - 0.0 - - - - - - -
30/11:00am 20.2 SSE 14 19 1025.2 - 0.0 - - - - - - -
30/10:30am 20.8 SSE 14 20 1025.3 - 0.0 - - - - - - -
30/10:00am 19.5 SSE 13 19 1025.5 - 0.0 - - - - - - -
30/09:30am 19.6 SSE 13 19 1025.6 - 0.0 - - - - - - -
30/09:00am 19.8 SSE 14 19 1025.5 - 8.8 - - - - - - -
30/08:30am 19.8 SSE 16 22 1025.4 - 8.8 - - - - - - -
30/08:00am 19.7 SE 16 23 1025.2 - 8.8 - - - - - - -
30/07:30am 19.7 SSE 15 22 1025.2 - 8.8 - - - - - - -
30/07:00am 19.9 SE 15 20 1024.9 - 8.8 - - - - - - -
30/06:46am 19.1 SE 18 23 1024.7 - 8.8 - - - - - - -
30/06:30am 18.6 ESE 21 25 1024.5 - 8.8 - - - - - - -
30/06:00am 19.5 SE 17 23 1024.5 - 8.6 - - - - - - -
30/05:30am 19.4 SE 18 25 1024.6 - 8.6 - - - - - - -
30/05:00am 19.2 SE 17 25 1024.5 - 8.6 - - - - - - -
30/04:30am 18.4 SE 21 27 1024.5 - 8.6 - - - - - - -
30/04:26am 18.3 ESE 20 28 1024.4 - 8.6 - - - - - - -
30/04:18am 18.4 E 18 28 1024.3 - 8.0 - - - - - - -
30/04:00am 18.7 ESE 16 21 1024.4 - 7.6 - - - - - - -
30/03:30am 19.3 SE 18 24 1024.5 - 7.2 - - - - - - -
30/03:00am 18.3 SSE 16 21 1024.6 - 7.2 - - - - - - -
30/02:30am 18.8 SE 17 25 1024.7 - 7.0 - - - - - - -
30/02:24am 18.5 SE 15 25 1024.8 - 7.0 - - - - - - -
30/02:00am 17.8 SE 22 29 1025.2 - 6.8 - - - - - - -
30/01:30am 18.6 SE 17 27 1025.6 - 6.8 - - - - - - -
30/01:22am 19.0 SE 17 27 1025.6 - 6.8 - - - - - - -
30/01:00am 18.9 SE 17 24 1025.8 - 6.6 - - - - - - -
30/12:45am 18.2 SE 19 30 1025.9 - 6.4 - - - - - - -
30/12:30am 18.8 SSE 17 25 1025.9 - 6.4 - - - - - - -
30/12:16am 19.1 SSE 17 26 1026.1 - 6.4 - - - - - - -
30/12:00am 18.6 ESE 20 28 1026.2 - 6.4 - - - - - - -
 
Date/Time
EST
Temp

°C
Wind Pressure Rain
since 9am
mm
Weather Cloud Vis
km
Sea
Height
m
Swell
Dir
 
Speed
knots
Gust
knots
hPa Trend Height
m
Period
s
Dir
29/11:46pm 18.9 SE 18 29 1026.3 - 6.4 - - - - - - -
29/11:30pm 18.9 SSE 18 25 1026.5 - 6.4 - - - - - - -
29/11:14pm 18.7 SE 20 30 1026.5 - 6.4 - - - - - - -
29/11:00pm 18.7 ESE 21 29 1026.6 - 6.4 - - - - - - -
29/10:57pm 18.7 ESE 21 26 1026.6 - 6.2 - - - - - - -
29/10:30pm 19.6 SSE 18 25 1026.6 - 6.0 - - - - - - -
29/09:30pm 19.7 SSE 19 27 1026.7 - 6.0 - - - - - - -
29/09:00pm 19.5 SSE 18 26 1026.7 - 6.0 - - - - - - -
29/08:30pm 19.5 SE 21 29 1026.7 - 6.0 - - - - - - -
29/08:00pm 19.7 SSE 19 26 1026.6 - 6.0 - - - - - - -
29/07:50pm 19.2 SE 19 29 1026.6 - 6.0 - - - - - - -
29/07:41pm 18.3 ESE 20 30 1026.7 - 6.0 - - - - - - -
29/07:30pm 19.5 SSE 18 27 1026.4 - 5.8 - - - - - - -
29/07:00pm 19.6 SSE 18 25 1026.2 - 5.8 - - - - - - -
29/06:30pm 18.9 SE 18 24 1026.0 - 5.8 - - - - - - -
29/06:00pm 18.9 SE 20 26 1026.0 - 2.8 - - - - - - -
29/05:38pm 19.0 SE 20 33 1025.8 - 2.6 - - - - - - -
29/05:30pm 19.1 SE 20 26 1025.7 - 2.6 - - - - - - -
29/05:00pm 18.5 ESE 18 26 1025.7 - 2.0 - - - - - - -
29/04:30pm 18.0 ESE 18 27 1025.6 - 2.0 - - - - - - -
29/04:15pm 20.1 SE 16 28 1025.4 - 0.0 - - - - - - -
29/04:00pm 20.9 SE 20 26 1025.1 - 0.0 - - - - - - -
29/03:30pm 20.7 SE 18 24 1025.1 - 0.0 - - - - - - -
29/03:00pm 21.2 SE 17 23 1025.3 - 0.0 - - - - - - -
29/02:30pm 20.9 SSE 15 22 1025.5 - 0.0 - - - - - - -
29/02:13pm 20.4 SSE 15 25 1025.7 - 0.0 - - - - - - -
29/02:00pm 20.2 S 15 21 1025.9 - 0.0 - - - - - - -
29/01:30pm 20.1 S 14 22 1026.1 - 0.0 - - - - - - -
29/01:00pm 20.2 S 13 19 1026.3 - 0.0 - - - - - - -
29/12:30pm 20.3 SSE 14 21 1026.6 - 0.0 - - - - - - -
29/12:00pm 20.3 SSE 15 23 1027.1 - 0.0 - - - - - - -
29/11:30am 20.3 SSE 15 21 1027.6 - 0.0 - - - - - - -
29/11:00am 19.9 SSE 16 24 1028.0 - 0.0 - - - - - - -
29/10:30am 19.9 S 15 23 1028.4 - 0.0 - - - - - - -
29/10:00am 19.5 S 15 24 1028.6 - 0.0 - - - - - - -
29/09:30am 19.5 S 14 21 1028.6 - 0.0 - - - - - - -
29/09:00am 19.1 SSE 17 24 1028.4 - 0.0 - - - - - - -
29/08:30am 19.2 S 12 20 1028.4 - 0.0 - - - - - - -
29/08:00am 18.9 SSE 14 21 1028.2 - 0.0 - - - - - - -
29/07:30am 18.6 S 13 19 1028.0 - 0.0 - - - - - - -
29/06:00am 18.7 SSE 15 21 1027.4 - 0.0 - - - - - - -
29/05:44am 18.9 SSE 15 25 1027.4 - 0.0 - - - - - - -
29/05:30am 18.9 SSE 16 24 1027.2 - 0.0 - - - - - - -
29/05:00am 18.9 SSE 16 22 1027.0 - 0.0 - - - - - - -
29/04:30am 18.8 SSE 15 23 1026.8 - 0.0 - - - - - - -
29/04:00am 18.7 SSE 15 21 1026.8 - 0.0 - - - - - - -
29/03:30am 18.8 SSE 15 22 1026.9 - 0.0 - - - - - - -
29/03:00am 19.0 SE 16 23 1027.0 - 0.0 - - - - - - -
29/02:30am 18.7 SE 18 24 1027.1 - 0.0 - - - - - - -
29/02:00am 18.8 SE 18 25 1027.1 - 0.0 - - - - - - -
29/01:30am 19.1 SE 20 26 1027.3 - 0.0 - - - - - - -
29/01:00am 18.9 SE 21 27 1027.5 - 0.0 - - - - - - -
29/12:30am 19.0 SE 22 28 1027.6 - 0.0 - - - - - - -
29/12:00am 19.1 SE 21 27 1027.5 - 0.0 - - - - - - -
 
Date/Time
EST
Temp

°C
Wind Pressure Rain
since 9am
mm
Weather Cloud Vis
km
Sea
Height
m
Swell
Dir
 
Speed
knots
Gust
knots
hPa Trend Height
m
Period
s
Dir
28/11:30pm 19.1 SE 22 28 1027.7 - 0.0 - - - - - - -
28/11:00pm 19.5 SE 23 29 1027.9 - 0.0 - - - - - - -
28/10:30pm 19.5 SE 23 29 1028.1 - 0.0 - - - - - - -
28/10:00pm 19.7 SE 20 25 1028.1 - 0.0 - - - - - - -
28/09:30pm 19.7 SE 19 25 1028.1 - 0.0 - - - - - - -
28/09:00pm 19.6 SE 21 28 1028.0 - 0.0 - - - - - - -
28/08:30pm 19.9 SE 21 26 1027.8 - 0.0 - - - - - - -
28/08:00pm 19.9 SE 21 27 1027.7 - 0.0 - - - - - - -
28/07:30pm 19.7 SE 22 29 1027.5 - 0.0 - - - - - - -
28/07:00pm 19.8 SE 22 28 1027.3 - 0.0 - - - - - - -
28/06:30pm 19.8 SE 21 26 1026.9 - 0.0 - - - - - - -
28/06:00pm 19.8 SE 20 27 1026.5 - 0.0 - - - - - - -
28/05:30pm 19.8 SE 22 27 1026.2 - 0.0 - - - - - - -
28/05:00pm 19.9 SE 20 27 1025.9 - 0.0 - - - - - - -
28/04:32pm 20.2 SE 19 29 1025.5 - 0.0 - - - - - - -
28/04:30pm 20.1 SSE 18 25 1025.5 - 0.0 - - - - - - -
28/04:00pm 20.3 SE 20 27 1025.2 - 0.0 - - - - - - -
28/03:30pm 20.7 SE 20 27 1025.1 - 0.0 - - - - - - -
28/03:00pm 20.9 SE 20 27 1025.0 - 0.0 - - - - - - -
28/02:30pm 21.1 SE 21 27 1024.8 - 0.0 - - - - - - -
28/02:05pm 20.6 SE 20 24 1024.8 - 0.0 - - - - - - -
28/02:00pm 20.9 SSE 13 22 1024.8 - 0.0 - - - - - - -
28/01:30pm 20.2 S 13 22 1025.0 - 0.0 - - - - - - -
28/01:00pm 19.2 S 14 22 1025.4 - 0.0 - - - - - - -
28/12:30pm 19.0 S 14 21 1025.7 - 0.0 - - - - - - -
28/12:00pm 18.8 S 15 21 1026.2 - 0.0 - - - - - - -
28/11:30am 18.5 S 14 21 1026.5 - 0.0 - - - - - - -
28/11:00am 19.0 S 14 21 1026.8 - 0.0 - - - - - - -
28/10:30am 18.6 S 15 21 1027.1 - 0.0 - - - - - - -
28/09:30am 17.6 S 15 24 1027.2 - 0.0 - - - - - - -
28/09:00am 17.3 S 15 22 1027.1 - 0.0 - - - - - - -
28/08:00am 17.0 S 14 21 1026.5 - 0.0 - - - - - - -
28/07:30am 16.5 S 14 21 1026.5 - 0.0 - - - - - - -
28/07:00am 16.2 S 14 22 1026.1 - 0.0 - - - - - - -
28/06:30am 15.9 S 15 23 1026.0 - 0.0 - - - - - - -
28/06:00am 15.8 S 16 - 1025.8 - - - - - - - - -
28/05:30am 15.9 S 17 23 1025.6 - 0.0 - - - - - - -
28/05:00am 16.0 S 17 24 1025.2 - 0.0 - - - - - - -
28/04:30am 16.2 S 17 27 1024.9 - 0.0 - - - - - - -
28/04:29am 16.2 S 17 27 1024.8 - 0.0 - - - - - - -
28/04:00am 16.4 S 19 25 1024.8 - 0.0 - - - - - - -
28/03:30am 17.0 S 18 24 1024.7 - 0.0 - - - - - - -
28/03:00am 17.3 S 16 24 1024.6 - 0.0 - - - - - - -
28/02:30am 17.5 S 16 24 1024.5 - 0.0 - - - - - - -
28/01:30am 18.3 S 16 22 1024.9 - 0.0 - - - - - - -
28/01:00am 18.7 S 16 22 1025.0 - 0.0 - - - - - - -
28/12:30am 19.2 SSW 16 23 1025.0 - 0.0 - - - - - - -
28/12:00am 19.9 S 11 18 1024.9 - 0.0 - - - - - - -
 
Date/Time
EST
Temp

°C
Wind Pressure Rain
since 9am
mm
Weather Cloud Vis
km
Sea
Height
m
Swell
Dir
 
Speed
knots
Gust
knots
hPa Trend Height
m
Period
s
Dir
27/11:00pm 20.6 S 10 17 1024.8 - 0.0 - - - - - - -
27/10:30pm 20.9 S 12 18 1024.9 - 0.0 - - - - - - -
27/10:00pm 20.9 SSE 10 15 1025.0 - 0.0 - - - - - - -
27/09:30pm 21.0 SSE 9 13 1024.7 - 0.0 - - - - - - -
27/09:00pm 21.1 S 6 9 1024.5 - 0.0 - - - - - - -
27/08:30pm 21.4 SSE 6 10 1024.4 - 0.0 - - - - - - -
27/08:00pm 21.4 SSE 7 10 1024.2 - 0.0 - - - - - - -
27/07:30pm 21.6 SE 8 11 1023.9 - 0.0 - - - - - - -
27/07:00pm 21.5 SE 9 11 1023.5 - 0.0 - - - - - - -
27/06:30pm 21.5 SE 9 11 1023.0 - 0.0 - - - - - - -
27/06:00pm 21.9 SE 11 14 1022.7 - 0.0 - - - - - - -
27/05:30pm 21.8 SE 11 15 1022.3 - 0.0 - - - - - - -
27/05:00pm 21.7 SE 12 16 1021.9 - 0.0 - - - - - - -
27/04:30pm 21.6 SE 11 15 1021.6 - 0.0 - - - - - - -
27/04:00pm 21.6 SE 11 14 1021.3 - 0.0 - - - - - - -
27/03:30pm 21.7 SSE 10 13 1021.0 - 0.0 - - - - - - -
27/03:00pm 22.0 SSE 10 15 1020.9 - 0.0 - - - - - - -
27/02:30pm 21.8 S 10 15 1021.0 - 0.0 - - - - - - -

Other Formats:

Comma delimited format used in spreadsheet applications
http://www.bom.gov.au/fwo/IDQ60701/IDQ60701.94388.axf

JavaScript Object Notation format (JSON) in row-major order
http://www.bom.gov.au/fwo/IDQ60701/IDQ60701.94388.json